createdAt,value
2023-01-18T00:01:17.185Z,0.30
2023-01-18T00:03:45.586Z,0.42
2023-01-18T00:06:12.739Z,0.43
2023-01-18T00:08:41.621Z,0.47
2023-01-18T00:11:09.965Z,0.60
2023-01-18T00:16:12.209Z,0.36
2023-01-18T00:18:40.182Z,0.40
2023-01-18T00:21:09.383Z,0.41
2023-01-18T00:23:36.735Z,0.32
2023-01-18T00:26:09.287Z,0.43
2023-01-18T00:28:37.386Z,0.36
2023-01-18T00:31:17.466Z,0.29
2023-01-18T00:34:11.717Z,0.33
2023-01-18T00:39:05.301Z,0.37
2023-01-18T00:41:32.019Z,0.25
2023-01-18T00:43:58.851Z,0.29
2023-01-18T00:46:29.976Z,0.35
2023-01-18T00:48:59.592Z,0.30
2023-01-18T00:51:27.199Z,0.26
2023-01-18T00:54:06.084Z,0.31
2023-01-18T00:56:32.825Z,0.31
2023-01-18T00:58:59.495Z,0.40
2023-01-18T01:01:26.236Z,0.52
2023-01-18T01:04:11.765Z,0.58
2023-01-18T01:06:40.248Z,0.59
2023-01-18T01:09:06.959Z,0.59
2023-01-18T01:11:34.449Z,0.65
2023-01-18T01:14:20.181Z,0.77
2023-01-18T01:17:05.720Z,0.76
2023-01-18T01:22:22.974Z,0.87
2023-01-18T01:25:08.369Z,0.83
2023-01-18T01:27:35.073Z,0.93
2023-01-18T01:30:04.191Z,0.87
2023-01-18T01:32:31.473Z,0.83
2023-01-18T01:35:01.757Z,0.84
2023-01-18T01:37:28.417Z,0.81
2023-01-18T01:39:56.863Z,0.88
2023-01-18T01:42:23.539Z,0.93
2023-01-18T01:44:52.193Z,0.82
2023-01-18T01:47:27.339Z,0.76
2023-01-18T01:49:59.250Z,0.73
2023-01-18T01:52:34.477Z,0.82
2023-01-18T01:55:09.387Z,0.78
2023-01-18T01:57:40.479Z,0.73
2023-01-18T02:00:19.814Z,0.78
2023-01-18T02:03:06.367Z,0.73
2023-01-18T02:05:36.873Z,0.84
2023-01-18T02:08:30.920Z,0.82
2023-01-18T02:10:57.737Z,0.79
2023-01-18T02:13:26.474Z,0.79
2023-01-18T02:16:18.957Z,0.66
2023-01-18T02:18:59.061Z,0.59
2023-01-18T02:21:35.661Z,0.38
2023-01-18T02:24:26.770Z,0.42
2023-01-18T02:27:11.720Z,0.29
2023-01-18T02:29:40.652Z,0.26
2023-01-18T02:35:15.121Z,0.19
2023-01-18T02:37:49.565Z,-0.01
2023-01-18T02:40:27.511Z,0.03
2023-01-18T02:43:15.820Z,0.07
2023-01-18T02:46:14.796Z,-0.07
2023-01-18T02:48:52.619Z,-0.21
2023-01-18T02:51:23.102Z,-0.35
2023-01-18T02:53:49.769Z,-0.28
2023-01-18T02:56:34.459Z,-0.22
2023-01-18T02:59:05.243Z,-0.26
2023-01-18T03:01:40.379Z,-0.27
2023-01-18T03:04:18.317Z,-0.23
2023-01-18T03:06:49.365Z,-0.37
2023-01-18T03:09:27.022Z,-0.36
2023-01-18T03:12:23.471Z,-0.48
2023-01-18T03:15:10.799Z,-0.42
2023-01-18T03:17:40.273Z,-0.42
2023-01-18T03:20:12.897Z,-0.42
2023-01-18T03:22:39.361Z,-0.52
2023-01-18T03:25:09.846Z,-0.49
2023-01-18T03:27:40.263Z,-0.57
2023-01-18T03:30:27.019Z,-0.56
2023-01-18T03:33:12.835Z,-0.52
2023-01-18T03:35:40.351Z,-0.64
2023-01-18T03:38:07.193Z,-0.62
2023-01-18T03:40:35.685Z,-0.64
2023-01-18T03:43:16.886Z,-0.60
2023-01-18T03:45:45.931Z,-0.65
2023-01-18T03:48:22.781Z,-0.68
2023-01-18T03:51:05.666Z,-0.69
2023-01-18T03:53:40.310Z,-0.67
2023-01-18T03:56:18.522Z,-0.62
2023-01-18T03:58:46.223Z,-0.77
2023-01-18T04:01:13.540Z,-0.73
2023-01-18T04:03:40.337Z,-0.68
2023-01-18T04:06:08.021Z,-0.78
2023-01-18T04:08:34.833Z,-0.75
2023-01-18T04:11:01.568Z,-0.64
2023-01-18T04:13:28.307Z,-0.55
2023-01-18T04:15:55.094Z,-0.64
2023-01-18T04:18:21.808Z,-0.74
2023-01-18T04:20:49.222Z,-0.74
2023-01-18T04:23:16.087Z,-0.71
2023-01-18T04:25:56.538Z,-0.82
2023-01-18T04:28:30.143Z,-0.73
2023-01-18T04:31:00.340Z,-0.72
2023-01-18T04:33:27.121Z,-0.67
2023-01-18T04:35:54.973Z,-0.60
2023-01-18T04:38:21.832Z,-0.62
2023-01-18T04:41:09.437Z,-0.68
2023-01-18T04:43:36.887Z,-0.71
2023-01-18T04:46:04.005Z,-0.78
2023-01-18T04:48:30.803Z,-0.71
2023-01-18T04:50:57.773Z,-0.75
2023-01-18T04:53:24.533Z,-0.70
2023-01-18T04:55:55.393Z,-0.66
2023-01-18T04:58:22.393Z,-0.63
2023-01-18T05:00:49.321Z,-0.78
2023-01-18T05:03:16.356Z,-0.70
2023-01-18T05:05:43.040Z,-0.77
2023-01-18T05:08:09.756Z,-0.74
2023-01-18T05:13:18.762Z,-0.70
2023-01-18T05:15:45.518Z,-0.59
2023-01-18T05:18:12.380Z,-0.71
2023-01-18T05:23:10.863Z,-0.66
2023-01-18T05:28:05.098Z,-0.64
2023-01-18T05:30:40.376Z,-0.46
2023-01-18T05:33:07.470Z,-0.52
2023-01-18T05:35:37.690Z,-0.51
2023-01-18T05:38:04.504Z,-0.58
2023-01-18T05:40:31.135Z,-0.52
2023-01-18T05:42:58.326Z,-0.61
2023-01-18T05:45:25.305Z,-0.57
2023-01-18T05:47:55.036Z,-0.57
2023-01-18T05:50:22.802Z,-0.58
2023-01-18T05:52:49.636Z,-0.61
2023-01-18T05:55:19.471Z,-0.67
2023-01-18T05:57:48.889Z,-0.62
2023-01-18T06:00:16.119Z,-0.68
2023-01-18T06:02:42.849Z,-0.68
2023-01-18T06:05:09.886Z,-0.59
2023-01-18T06:07:36.525Z,-0.66
2023-01-18T06:10:14.683Z,-0.70
2023-01-18T06:12:42.258Z,-0.58
2023-01-18T06:15:15.961Z,-0.52
2023-01-18T06:17:47.046Z,-0.63
2023-01-18T06:20:14.449Z,-0.62
2023-01-18T06:22:41.361Z,-0.70
2023-01-18T06:25:10.117Z,-0.70
2023-01-18T06:27:37.845Z,-0.65
2023-01-18T06:30:07.075Z,-0.57
2023-01-18T06:35:06.821Z,-0.57
2023-01-18T06:40:12.867Z,-0.69
2023-01-18T06:45:24.637Z,-0.68
2023-01-18T06:47:53.326Z,-0.58
2023-01-18T06:50:26.405Z,-0.59
2023-01-18T06:55:38.012Z,-0.70
2023-01-18T06:58:04.958Z,-0.68
2023-01-18T07:03:07.102Z,-0.63
2023-01-18T07:05:37.701Z,-0.65
2023-01-18T07:08:04.821Z,-0.62
2023-01-18T07:10:32.721Z,-0.62
2023-01-18T07:13:00.065Z,-0.66
2023-01-18T07:15:38.116Z,-0.65
2023-01-18T07:18:04.877Z,-0.58
2023-01-18T07:20:31.633Z,-0.56
2023-01-18T07:22:59.138Z,-0.50
2023-01-18T07:25:28.612Z,-0.55
2023-01-18T07:27:58.090Z,-0.52
2023-01-18T07:30:25.903Z,-0.55
2023-01-18T07:32:53.543Z,-0.50
2023-01-18T07:35:24.620Z,-0.56
2023-01-18T07:37:53.393Z,-0.47
2023-01-18T07:40:22.461Z,-0.42
2023-01-18T07:43:00.840Z,-0.32
2023-01-18T07:45:41.064Z,-0.31
2023-01-18T07:48:07.874Z,-0.30
2023-01-18T07:50:36.135Z,-0.24
2023-01-18T07:53:08.923Z,-0.21
2023-01-18T07:58:11.654Z,-0.31
2023-01-18T08:03:05.782Z,-0.32
2023-01-18T08:05:32.838Z,-0.29
2023-01-18T08:07:59.873Z,-0.29
2023-01-18T08:10:27.782Z,-0.30
2023-01-18T08:12:54.917Z,-0.54
2023-01-18T08:15:26.124Z,-0.39
2023-01-18T08:17:55.936Z,-0.18
2023-01-18T08:20:25.376Z,-0.01
2023-01-18T08:22:59.110Z,0.04
2023-01-18T08:25:30.538Z,0.12
2023-01-18T08:28:06.570Z,-0.03
2023-01-18T08:33:06.064Z,0.11
2023-01-18T08:35:40.573Z,-0.05
2023-01-18T08:38:07.388Z,0.05
2023-01-18T08:40:34.154Z,-0.03
2023-01-18T08:43:02.809Z,-0.19
2023-01-18T08:45:30.288Z,-0.17
2023-01-18T08:48:02.717Z,-0.20
2023-01-18T08:50:30.965Z,-0.02
2023-01-18T08:53:00.321Z,-0.37
2023-01-18T08:55:28.003Z,-0.40
2023-01-18T08:57:57.759Z,-0.25
2023-01-18T09:00:27.158Z,-0.18
2023-01-18T09:02:54.003Z,-0.37
2023-01-18T09:05:20.764Z,-0.29
2023-01-18T09:07:47.656Z,-0.17
2023-01-18T09:10:14.784Z,-0.17
2023-01-18T09:12:41.417Z,-0.23
2023-01-18T09:15:08.945Z,-0.23
2023-01-18T09:17:41.722Z,-0.15
2023-01-18T09:20:09.907Z,-0.01
2023-01-18T09:22:37.310Z,-0.02
2023-01-18T09:25:05.906Z,0.21
2023-01-18T09:27:33.259Z,0.17
2023-01-18T09:29:59.941Z,0.26
2023-01-18T09:32:27.584Z,0.14
2023-01-18T09:34:54.971Z,0.23
2023-01-18T09:37:22.469Z,0.28
2023-01-18T09:39:52.836Z,0.19
2023-01-18T09:42:27.525Z,0.21
2023-01-18T09:44:59.875Z,0.25
2023-01-18T09:47:34.351Z,0.28
2023-01-18T09:50:21.717Z,0.30
2023-01-18T09:53:13.880Z,0.58
2023-01-18T09:55:56.934Z,0.46
2023-01-18T09:58:42.498Z,0.26
2023-01-18T10:01:17.239Z,0.26
2023-01-18T10:03:59.603Z,0.42
2023-01-18T10:06:33.846Z,0.40
2023-01-18T10:09:12.270Z,0.55
2023-01-18T10:11:45.112Z,0.41
2023-01-18T10:14:21.009Z,0.50
2023-01-18T10:16:56.741Z,0.45
2023-01-18T10:19:30.264Z,0.58
2023-01-18T10:22:27.003Z,0.50
2023-01-18T10:25:16.634Z,0.39
2023-01-18T10:27:49.236Z,0.49
2023-01-18T10:30:29.124Z,0.64
2023-01-18T10:32:59.464Z,0.33
2023-01-18T10:38:12.361Z,0.81
2023-01-18T10:40:40.564Z,0.86
2023-01-18T10:43:12.898Z,0.67
2023-01-18T10:45:40.549Z,0.52
2023-01-18T10:48:26.555Z,0.68
2023-01-18T10:50:59.519Z,0.54
2023-01-18T10:53:41.939Z,0.50
2023-01-18T10:56:22.200Z,0.60
2023-01-18T10:58:49.380Z,0.74
2023-01-18T11:01:23.817Z,0.54
2023-01-18T11:03:58.764Z,0.77
2023-01-18T11:06:32.364Z,1.00
2023-01-18T11:09:02.295Z,0.97
2023-01-18T11:11:40.716Z,0.84
2023-01-18T11:14:27.672Z,0.86
2023-01-18T11:16:59.007Z,1.08
2023-01-18T11:19:29.952Z,1.17
2023-01-18T11:21:57.140Z,1.15
2023-01-18T11:24:31.360Z,1.30
2023-01-18T11:27:02.149Z,0.78
2023-01-18T11:32:09.929Z,0.56
2023-01-18T11:37:33.102Z,0.58
2023-01-18T11:40:18.596Z,0.55
2023-01-18T11:42:46.612Z,0.51
2023-01-18T11:45:25.500Z,0.48
2023-01-18T11:48:26.682Z,0.48
2023-01-18T11:51:03.710Z,0.41
2023-01-18T11:53:42.043Z,0.44
2023-01-18T11:56:31.859Z,0.48
2023-01-18T11:59:02.716Z,0.52
2023-01-18T12:01:40.763Z,0.44
2023-01-18T12:04:15.996Z,0.51
2023-01-18T12:06:58.612Z,0.45
2023-01-18T12:09:40.721Z,0.44
2023-01-18T12:12:23.874Z,0.37
2023-01-18T12:15:21.667Z,0.39
2023-01-18T12:20:59.896Z,0.55
2023-01-18T12:23:40.723Z,0.48
2023-01-18T12:26:13.581Z,0.45
2023-01-18T12:29:17.819Z,0.55
2023-01-18T12:32:14.732Z,0.56
2023-01-18T12:34:49.432Z,0.43
2023-01-18T12:37:42.824Z,0.49
2023-01-18T12:40:40.711Z,0.46
2023-01-18T12:43:10.609Z,0.48
2023-01-18T12:45:41.188Z,0.55
2023-01-18T12:48:29.752Z,0.57
2023-01-18T12:50:58.578Z,0.55
2023-01-18T12:53:41.425Z,0.52
2023-01-18T12:56:17.805Z,0.54
2023-01-18T12:58:54.599Z,0.63
2023-01-18T13:01:24.454Z,0.62
2023-01-18T13:03:59.173Z,0.54
2023-01-18T13:06:27.532Z,0.58
2023-01-18T13:09:03.265Z,0.58
2023-01-18T13:11:36.527Z,0.62
2023-01-18T13:14:26.607Z,0.62
2023-01-18T13:17:30.205Z,0.64
2023-01-18T13:20:16.652Z,0.77
2023-01-18T13:23:04.145Z,0.85
2023-01-18T13:25:39.744Z,0.88
2023-01-18T13:28:32.527Z,0.85
2023-01-18T13:31:05.113Z,0.83
2023-01-18T13:33:40.841Z,0.86
2023-01-18T13:36:14.342Z,0.92
2023-01-18T13:39:03.529Z,0.84
2023-01-18T13:41:31.010Z,0.90
2023-01-18T13:44:03.714Z,0.87
2023-01-18T13:46:36.820Z,0.83
2023-01-18T13:49:37.133Z,0.72
2023-01-18T13:52:31.268Z,0.80
2023-01-18T13:55:11.179Z,0.81
2023-01-18T13:57:40.727Z,0.75
2023-01-18T14:00:24.625Z,0.79
2023-01-18T14:02:57.300Z,0.82
2023-01-18T14:05:31.787Z,0.77
2023-01-18T14:08:08.260Z,0.76
2023-01-18T14:10:37.939Z,0.78
2023-01-18T14:13:08.629Z,0.84
2023-01-18T14:15:41.066Z,0.82
2023-01-18T14:18:27.501Z,0.78
2023-01-18T14:21:08.653Z,0.78
2023-01-18T14:23:38.300Z,0.77
2023-01-18T14:26:07.826Z,0.83
2023-01-18T14:28:43.952Z,0.80
2023-01-18T14:31:19.930Z,0.82
2023-01-18T14:33:47.255Z,0.75
2023-01-18T14:36:28.866Z,0.86
2023-01-18T14:39:18.110Z,0.90
2023-01-18T14:41:51.720Z,0.88
2023-01-18T14:44:40.746Z,0.86
2023-01-18T14:47:26.499Z,0.83
2023-01-18T14:49:55.944Z,0.86
2023-01-18T14:52:28.559Z,0.80
2023-01-18T14:54:56.059Z,0.79
2023-01-18T14:57:24.231Z,0.76
2023-01-18T15:00:15.186Z,0.83
2023-01-18T15:02:43.880Z,0.88
2023-01-18T15:05:20.475Z,0.83
2023-01-18T15:07:57.760Z,0.85
2023-01-18T15:10:26.392Z,0.85
2023-01-18T15:12:57.513Z,0.73
2023-01-18T15:15:32.450Z,0.67
2023-01-18T15:18:12.076Z,0.71
2023-01-18T15:20:39.756Z,0.71
2023-01-18T15:23:06.621Z,0.69
2023-01-18T15:25:33.500Z,0.66
2023-01-18T15:28:22.420Z,0.74
2023-01-18T15:31:00.484Z,0.69
2023-01-18T15:33:33.989Z,0.77
2023-01-18T15:36:06.723Z,0.72
2023-01-18T15:38:37.625Z,0.60
2023-01-18T15:41:10.894Z,0.60
2023-01-18T15:43:42.180Z,0.55
2023-01-18T15:46:15.089Z,0.52
2023-01-18T15:48:52.364Z,0.62
2023-01-18T15:51:40.676Z,0.57
2023-01-18T15:54:11.945Z,0.55
2023-01-18T15:59:10.888Z,0.43
2023-01-18T16:01:37.700Z,0.45
2023-01-18T16:04:25.293Z,0.41
2023-01-18T16:06:55.093Z,0.43
2023-01-18T16:09:26.075Z,0.37
2023-01-18T16:11:57.027Z,0.31
2023-01-18T16:14:32.856Z,0.32
2023-01-18T16:17:06.942Z,0.33
2023-01-18T16:19:44.185Z,0.34
2023-01-18T16:22:24.638Z,0.30
2023-01-18T16:25:06.761Z,0.21
2023-01-18T16:27:34.205Z,0.14
2023-01-18T16:30:17.567Z,0.17
2023-01-18T16:32:44.240Z,0.19
2023-01-18T16:35:17.821Z,0.13
2023-01-18T16:37:45.340Z,0.16
2023-01-18T16:40:20.837Z,0.12
2023-01-18T16:43:05.178Z,0.07
2023-01-18T16:45:38.178Z,0.06
2023-01-18T16:48:05.913Z,-0.03
2023-01-18T16:50:35.791Z,-0.02
2023-01-18T16:53:03.941Z,0.05
2023-01-18T16:55:33.156Z,0.00
2023-01-18T16:58:20.628Z,0.08
2023-01-18T17:01:08.878Z,-0.08
2023-01-18T17:03:36.730Z,-0.03
2023-01-18T17:06:06.728Z,0.02
2023-01-18T17:08:33.635Z,-0.03
2023-01-18T17:11:01.902Z,-0.08
2023-01-18T17:13:28.937Z,-0.16
2023-01-18T17:15:55.611Z,-0.29
2023-01-18T17:18:26.125Z,-0.33
2023-01-18T17:20:53.873Z,-0.42
2023-01-18T17:23:22.375Z,-0.47
2023-01-18T17:25:49.481Z,-0.43
2023-01-18T17:28:21.576Z,-0.46
2023-01-18T17:30:49.908Z,-0.59
2023-01-18T17:33:19.700Z,-0.54
2023-01-18T17:35:46.915Z,-0.67
2023-01-18T17:38:30.272Z,-0.73
2023-01-18T17:40:57.579Z,-0.85
2023-01-18T17:43:39.286Z,-0.81
2023-01-18T17:46:08.140Z,-0.88
2023-01-18T17:51:10.321Z,-1.06
2023-01-18T17:59:10.091Z,-1.16
2023-01-18T18:01:37.243Z,-1.20
2023-01-18T18:04:07.168Z,-1.26
2023-01-18T18:06:36.316Z,-1.32
2023-01-18T18:09:06.056Z,-1.38
2023-01-18T18:11:32.768Z,-1.54
2023-01-18T18:14:00.433Z,-1.71
2023-01-18T18:16:27.874Z,-1.57
2023-01-18T18:18:58.314Z,-1.68
2023-01-18T18:21:27.439Z,-1.73
2023-01-18T18:23:54.325Z,-1.68
2023-01-18T18:26:21.219Z,-1.44
2023-01-18T18:28:47.859Z,-1.62
2023-01-18T18:31:16.415Z,-1.80
2023-01-18T18:33:48.873Z,-1.58
2023-01-18T18:36:15.798Z,-1.82
2023-01-18T18:38:44.565Z,-1.95
2023-01-18T18:41:11.362Z,-2.14
2023-01-18T18:43:38.118Z,-2.01
2023-01-18T18:46:07.416Z,-2.01
2023-01-18T18:48:34.143Z,-2.14
2023-01-18T18:51:02.404Z,-2.09
2023-01-18T18:53:38.237Z,-2.14
2023-01-18T18:56:10.677Z,-2.29
2023-01-18T18:58:46.577Z,-2.14
2023-01-18T19:01:21.678Z,-2.24
2023-01-18T19:03:50.166Z,-2.30
2023-01-18T19:06:17.526Z,-2.38
2023-01-18T19:08:48.834Z,-2.49
2023-01-18T19:11:16.832Z,-2.43
2023-01-18T19:13:49.524Z,-2.66
2023-01-18T19:16:16.969Z,-2.62
2023-01-18T19:18:43.885Z,-2.62
2023-01-18T19:21:22.174Z,-2.78
2023-01-18T19:23:48.982Z,-2.60
2023-01-18T19:26:15.903Z,-2.53
2023-01-18T19:28:42.542Z,-2.46
2023-01-18T19:31:09.380Z,-2.48
2023-01-18T19:36:14.479Z,-2.83
2023-01-18T19:38:46.078Z,-2.81
2023-01-18T19:41:15.189Z,-2.88
2023-01-18T19:43:43.002Z,-2.78
2023-01-18T19:46:12.007Z,-2.51
2023-01-18T19:51:21.761Z,-2.81
2023-01-18T19:53:49.557Z,-2.99
2023-01-18T19:56:16.284Z,-3.03
2023-01-18T19:58:42.951Z,-3.11
2023-01-18T20:01:26.671Z,-3.00
2023-01-18T20:04:01.397Z,-3.21
2023-01-18T20:06:28.653Z,-3.07
2023-01-18T20:08:55.893Z,-3.21
2023-01-18T20:11:22.994Z,-3.33
2023-01-18T20:13:51.245Z,-3.34
2023-01-18T20:16:22.435Z,-3.15
2023-01-18T20:18:51.737Z,-3.12
2023-01-18T20:21:19.283Z,-3.39
2023-01-18T20:23:46.393Z,-3.52
2023-01-18T20:26:18.001Z,-3.44
2023-01-18T20:28:49.210Z,-3.44
2023-01-18T20:31:16.009Z,-3.31
2023-01-18T20:33:42.980Z,-3.38
2023-01-18T20:36:10.221Z,-3.39
2023-01-18T20:38:37.998Z,-3.36
2023-01-18T20:41:06.488Z,-3.48
2023-01-18T20:43:33.614Z,-3.29
2023-01-18T20:46:05.457Z,-3.41
2023-01-18T20:48:34.098Z,-3.50
2023-01-18T20:51:01.946Z,-3.51
2023-01-18T20:53:30.868Z,-3.45
2023-01-18T20:56:09.859Z,-3.53
2023-01-18T20:58:40.985Z,-3.68
2023-01-18T21:01:15.763Z,-3.93
2023-01-18T21:03:44.959Z,-3.80
2023-01-18T21:06:12.299Z,-3.88
2023-01-18T21:11:11.069Z,-4.10
2023-01-18T21:16:05.594Z,-4.01
2023-01-18T21:18:37.736Z,-4.00
2023-01-18T21:21:05.290Z,-3.98
2023-01-18T21:26:09.196Z,-3.99
2023-01-18T21:28:36.920Z,-4.06
2023-01-18T21:31:05.095Z,-4.13
2023-01-18T21:33:32.096Z,-4.18
2023-01-18T21:36:07.475Z,-4.28
2023-01-18T21:38:35.034Z,-4.15
2023-01-18T21:41:23.804Z,-4.43
2023-01-18T21:44:11.433Z,-4.05
2023-01-18T21:49:06.975Z,-4.43
2023-01-18T21:51:40.851Z,-4.36
2023-01-18T21:54:16.932Z,-4.56
2023-01-18T21:56:44.566Z,-4.46
2023-01-18T21:59:12.637Z,-4.15
2023-01-18T22:01:40.973Z,-4.11
2023-01-18T22:04:31.525Z,-4.39
2023-01-18T22:07:01.765Z,-4.39
2023-01-18T22:09:33.271Z,-4.55
2023-01-18T22:12:01.359Z,-4.49
2023-01-18T22:14:28.352Z,-4.56
2023-01-18T22:16:55.391Z,-4.58
2023-01-18T22:19:22.504Z,-4.66
2023-01-18T22:21:50.176Z,-4.72
2023-01-18T22:24:17.847Z,-4.64
2023-01-18T22:26:45.781Z,-4.76
2023-01-18T22:29:13.078Z,-4.70
2023-01-18T22:31:40.916Z,-4.91
2023-01-18T22:34:15.979Z,-4.88
2023-01-18T22:36:42.776Z,-4.89
2023-01-18T22:39:11.426Z,-4.97
2023-01-18T22:44:05.519Z,-4.86
2023-01-18T22:46:32.919Z,-5.07
2023-01-18T22:49:00.441Z,-5.04
2023-01-18T22:51:27.215Z,-5.04
2023-01-18T22:53:56.139Z,-4.82
2023-01-18T22:56:25.246Z,-4.76
2023-01-18T22:58:53.410Z,-4.80
2023-01-18T23:01:38.166Z,-4.71
2023-01-18T23:04:08.877Z,-4.82
2023-01-18T23:06:40.898Z,-4.90
2023-01-18T23:09:09.638Z,-4.94
2023-01-18T23:11:36.696Z,-5.03
2023-01-18T23:14:22.343Z,-4.99
2023-01-18T23:17:07.964Z,-5.22
2023-01-18T23:19:34.981Z,-5.08
2023-01-18T23:22:07.468Z,-5.13
2023-01-18T23:24:36.298Z,-5.15
2023-01-18T23:27:04.740Z,-5.19
2023-01-18T23:29:32.824Z,-5.24
2023-01-18T23:31:59.701Z,-5.34
2023-01-18T23:34:26.524Z,-5.33
2023-01-18T23:36:53.704Z,-5.59
2023-01-18T23:42:24.413Z,-5.41
2023-01-18T23:45:10.213Z,-5.45
2023-01-18T23:47:40.881Z,-5.52
2023-01-18T23:50:26.482Z,-5.60
2023-01-18T23:53:12.101Z,-5.43
2023-01-18T23:58:05.713Z,-5.58
